sensor_id;sensor_type;location;lat;lon;timestamp;P1;durP1;ratioP1;P2;durP2;ratioP2
72156;SDS011;60035;52.122;5.406;2022-07-21T00:01:57;16.45;;;10.15;;
72156;SDS011;60035;52.122;5.406;2022-07-21T00:04:23;18.40;;;10.73;;
72156;SDS011;60035;52.122;5.406;2022-07-21T00:06:50;17.27;;;10.82;;
72156;SDS011;60035;52.122;5.406;2022-07-21T00:09:17;17.25;;;9.77;;
72156;SDS011;60035;52.122;5.406;2022-07-21T00:11:43;16.45;;;10.40;;
72156;SDS011;60035;52.122;5.406;2022-07-21T00:14:11;16.80;;;10.30;;
72156;SDS011;60035;52.122;5.406;2022-07-21T00:16:38;17.23;;;10.07;;
72156;SDS011;60035;52.122;5.406;2022-07-21T00:19:06;17.23;;;9.80;;
72156;SDS011;60035;52.122;5.406;2022-07-21T00:21:33;16.55;;;10.10;;
72156;SDS011;60035;52.122;5.406;2022-07-21T00:24:00;15.93;;;9.70;;
72156;SDS011;60035;52.122;5.406;2022-07-21T00:26:26;16.88;;;10.75;;
72156;SDS011;60035;52.122;5.406;2022-07-21T00:28:53;18.15;;;10.43;;
72156;SDS011;60035;52.122;5.406;2022-07-21T00:31:20;16.67;;;9.77;;
72156;SDS011;60035;52.122;5.406;2022-07-21T00:33:47;15.15;;;9.57;;
72156;SDS011;60035;52.122;5.406;2022-07-21T00:36:18;14.35;;;8.98;;
72156;SDS011;60035;52.122;5.406;2022-07-21T00:38:45;16.20;;;9.48;;
72156;SDS011;60035;52.122;5.406;2022-07-21T00:41:11;16.05;;;8.70;;
72156;SDS011;60035;52.122;5.406;2022-07-21T00:43:38;14.32;;;7.97;;
72156;SDS011;60035;52.122;5.406;2022-07-21T00:46:05;14.73;;;8.00;;
72156;SDS011;60035;52.122;5.406;2022-07-21T00:48:31;13.68;;;7.75;;
72156;SDS011;60035;52.122;5.406;2022-07-21T00:50:58;14.77;;;7.95;;
72156;SDS011;60035;52.122;5.406;2022-07-21T00:53:25;12.48;;;7.78;;
72156;SDS011;60035;52.122;5.406;2022-07-21T00:55:51;15.52;;;7.45;;
72156;SDS011;60035;52.122;5.406;2022-07-21T00:58:18;12.13;;;7.10;;
72156;SDS011;60035;52.122;5.406;2022-07-21T01:00:45;13.13;;;7.57;;
72156;SDS011;60035;52.122;5.406;2022-07-21T01:03:12;13.13;;;7.75;;
72156;SDS011;60035;52.122;5.406;2022-07-21T01:05:39;13.50;;;7.20;;
72156;SDS011;60035;52.122;5.406;2022-07-21T01:08:06;15.50;;;6.95;;
72156;SDS011;60035;52.122;5.406;2022-07-21T01:10:32;12.98;;;7.18;;
72156;SDS011;60035;52.122;5.406;2022-07-21T01:12:59;13.95;;;6.68;;
72156;SDS011;60035;52.122;5.406;2022-07-21T01:15:27;12.02;;;6.68;;
72156;SDS011;60035;52.122;5.406;2022-07-21T01:17:54;12.73;;;6.75;;
72156;SDS011;60035;52.122;5.406;2022-07-21T01:20:21;13.63;;;6.72;;
72156;SDS011;60035;52.122;5.406;2022-07-21T01:22:50;11.98;;;6.95;;
72156;SDS011;60035;52.122;5.406;2022-07-21T01:25:19;14.10;;;6.63;;
72156;SDS011;60035;52.122;5.406;2022-07-21T01:27:47;10.57;;;5.95;;
72156;SDS011;60035;52.122;5.406;2022-07-21T01:30:13;13.23;;;6.68;;
72156;SDS011;60035;52.122;5.406;2022-07-21T01:32:40;10.90;;;6.30;;
72156;SDS011;60035;52.122;5.406;2022-07-21T01:35:08;12.75;;;7.03;;
72156;SDS011;60035;52.122;5.406;2022-07-21T01:37:39;11.70;;;6.53;;
72156;SDS011;60035;52.122;5.406;2022-07-21T01:40:08;11.00;;;6.47;;
72156;SDS011;60035;52.122;5.406;2022-07-21T01:42:54;12.00;;;6.55;;
72156;SDS011;60035;52.122;5.406;2022-07-21T01:45:20;12.43;;;6.45;;
72156;SDS011;60035;52.122;5.406;2022-07-21T01:47:48;12.57;;;7.80;;
72156;SDS011;60035;52.122;5.406;2022-07-21T01:50:15;12.82;;;7.05;;
72156;SDS011;60035;52.122;5.406;2022-07-21T01:52:43;11.38;;;6.45;;
72156;SDS011;60035;52.122;5.406;2022-07-21T01:55:10;11.15;;;6.57;;
72156;SDS011;60035;52.122;5.406;2022-07-21T01:57:36;12.50;;;7.20;;
72156;SDS011;60035;52.122;5.406;2022-07-21T02:00:03;13.55;;;7.13;;
72156;SDS011;60035;52.122;5.406;2022-07-21T02:02:30;11.73;;;6.63;;
72156;SDS011;60035;52.122;5.406;2022-07-21T02:04:57;12.77;;;6.97;;
72156;SDS011;60035;52.122;5.406;2022-07-21T02:07:23;11.88;;;6.78;;
72156;SDS011;60035;52.122;5.406;2022-07-21T02:09:49;12.00;;;6.72;;
72156;SDS011;60035;52.122;5.406;2022-07-21T02:12:16;11.38;;;6.43;;
72156;SDS011;60035;52.122;5.406;2022-07-21T02:14:42;11.20;;;6.18;;
72156;SDS011;60035;52.122;5.406;2022-07-21T02:17:09;13.05;;;6.60;;
72156;SDS011;60035;52.122;5.406;2022-07-21T02:19:35;11.10;;;5.65;;
72156;SDS011;60035;52.122;5.406;2022-07-21T02:22:02;11.82;;;6.60;;
72156;SDS011;60035;52.122;5.406;2022-07-21T02:24:28;11.57;;;6.47;;
72156;SDS011;60035;52.122;5.406;2022-07-21T02:26:55;14.05;;;7.03;;
72156;SDS011;60035;52.122;5.406;2022-07-21T02:29:21;11.65;;;6.65;;
72156;SDS011;60035;52.122;5.406;2022-07-21T02:31:48;12.95;;;7.20;;
72156;SDS011;60035;52.122;5.406;2022-07-21T02:34:14;13.85;;;7.10;;
72156;SDS011;60035;52.122;5.406;2022-07-21T02:36:41;14.30;;;7.75;;
72156;SDS011;60035;52.122;5.406;2022-07-21T02:39:07;14.60;;;7.38;;
72156;SDS011;60035;52.122;5.406;2022-07-21T02:41:34;13.82;;;8.40;;
72156;SDS011;60035;52.122;5.406;2022-07-21T02:44:00;13.60;;;7.93;;
72156;SDS011;60035;52.122;5.406;2022-07-21T02:46:26;14.75;;;8.88;;
72156;SDS011;60035;52.122;5.406;2022-07-21T02:48:53;13.48;;;8.23;;
72156;SDS011;60035;52.122;5.406;2022-07-21T02:51:20;13.50;;;8.35;;
72156;SDS011;60035;52.122;5.406;2022-07-21T02:53:46;14.77;;;8.13;;
72156;SDS011;60035;52.122;5.406;2022-07-21T02:56:13;14.77;;;8.13;;
72156;SDS011;60035;52.122;5.406;2022-07-21T02:58:41;14.93;;;8.48;;
72156;SDS011;60035;52.122;5.406;2022-07-21T03:01:07;15.65;;;9.60;;
72156;SDS011;60035;52.122;5.406;2022-07-21T03:03:35;16.05;;;9.60;;
72156;SDS011;60035;52.122;5.406;2022-07-21T03:06:03;15.93;;;8.95;;
72156;SDS011;60035;52.122;5.406;2022-07-21T03:08:31;15.90;;;9.63;;
72156;SDS011;60035;52.122;5.406;2022-07-21T03:10:57;17.05;;;9.75;;
72156;SDS011;60035;52.122;5.406;2022-07-21T03:13:24;16.27;;;9.75;;
72156;SDS011;60035;52.122;5.406;2022-07-21T03:15:50;16.88;;;9.60;;
72156;SDS011;60035;52.122;5.406;2022-07-21T03:18:17;18.58;;;9.60;;
72156;SDS011;60035;52.122;5.406;2022-07-21T03:20:44;19.52;;;10.20;;
72156;SDS011;60035;52.122;5.406;2022-07-21T03:23:11;17.23;;;9.57;;
72156;SDS011;60035;52.122;5.406;2022-07-21T03:25:37;15.25;;;9.23;;
72156;SDS011;60035;52.122;5.406;2022-07-21T03:28:04;16.90;;;9.85;;
72156;SDS011;60035;52.122;5.406;2022-07-21T03:30:32;18.35;;;10.18;;
72156;SDS011;60035;52.122;5.406;2022-07-21T03:32:59;19.20;;;10.52;;
72156;SDS011;60035;52.122;5.406;2022-07-21T03:35:26;17.85;;;10.48;;
72156;SDS011;60035;52.122;5.406;2022-07-21T03:37:53;19.50;;;10.77;;
72156;SDS011;60035;52.122;5.406;2022-07-21T03:40:22;19.33;;;10.70;;
72156;SDS011;60035;52.122;5.406;2022-07-21T03:42:51;21.13;;;10.93;;
72156;SDS011;60035;52.122;5.406;2022-07-21T03:45:22;18.80;;;11.95;;
72156;SDS011;60035;52.122;5.406;2022-07-21T03:47:50;19.90;;;11.32;;
72156;SDS011;60035;52.122;5.406;2022-07-21T03:50:17;18.90;;;11.50;;
72156;SDS011;60035;52.122;5.406;2022-07-21T03:52:44;20.20;;;11.90;;
72156;SDS011;60035;52.122;5.406;2022-07-21T03:55:11;21.02;;;11.90;;
72156;SDS011;60035;52.122;5.406;2022-07-21T03:57:43;21.88;;;11.77;;
72156;SDS011;60035;52.122;5.406;2022-07-21T04:00:36;19.90;;;11.73;;
72156;SDS011;60035;52.122;5.406;2022-07-21T04:03:03;21.25;;;11.98;;
72156;SDS011;60035;52.122;5.406;2022-07-21T04:05:31;21.75;;;12.48;;
72156;SDS011;60035;52.122;5.406;2022-07-21T04:07:57;21.95;;;12.32;;
72156;SDS011;60035;52.122;5.406;2022-07-21T04:10:25;21.35;;;12.48;;
72156;SDS011;60035;52.122;5.406;2022-07-21T04:12:54;22.77;;;13.20;;
72156;SDS011;60035;52.122;5.406;2022-07-21T04:15:23;21.95;;;12.93;;
72156;SDS011;60035;52.122;5.406;2022-07-21T04:17:49;23.15;;;12.65;;
72156;SDS011;60035;52.122;5.406;2022-07-21T04:20:16;20.83;;;12.48;;
72156;SDS011;60035;52.122;5.406;2022-07-21T04:22:44;21.08;;;12.20;;
72156;SDS011;60035;52.122;5.406;2022-07-21T04:25:12;22.50;;;12.80;;
72156;SDS011;60035;52.122;5.406;2022-07-21T04:27:40;19.63;;;11.70;;
72156;SDS011;60035;52.122;5.406;2022-07-21T04:30:07;23.80;;;13.63;;
72156;SDS011;60035;52.122;5.406;2022-07-21T04:32:36;22.58;;;12.85;;
72156;SDS011;60035;52.122;5.406;2022-07-21T04:35:06;22.45;;;12.98;;
72156;SDS011;60035;52.122;5.406;2022-07-21T04:37:34;22.38;;;14.13;;
72156;SDS011;60035;52.122;5.406;2022-07-21T04:40:02;23.48;;;13.35;;
72156;SDS011;60035;52.122;5.406;2022-07-21T04:42:30;23.73;;;13.82;;
72156;SDS011;60035;52.122;5.406;2022-07-21T04:44:59;24.33;;;13.57;;
72156;SDS011;60035;52.122;5.406;2022-07-21T04:47:26;22.92;;;13.75;;
72156;SDS011;60035;52.122;5.406;2022-07-21T04:49:52;22.83;;;13.52;;
72156;SDS011;60035;52.122;5.406;2022-07-21T04:52:18;22.73;;;13.38;;
72156;SDS011;60035;52.122;5.406;2022-07-21T04:54:46;22.42;;;13.07;;
72156;SDS011;60035;52.122;5.406;2022-07-21T04:57:13;24.15;;;13.90;;
72156;SDS011;60035;52.122;5.406;2022-07-21T04:59:39;25.70;;;14.07;;
72156;SDS011;60035;52.122;5.406;2022-07-21T05:02:06;25.67;;;14.13;;
72156;SDS011;60035;52.122;5.406;2022-07-21T05:04:33;22.70;;;13.63;;
72156;SDS011;60035;52.122;5.406;2022-07-21T05:06:59;25.92;;;14.20;;
72156;SDS011;60035;52.122;5.406;2022-07-21T05:09:26;25.00;;;14.57;;
72156;SDS011;60035;52.122;5.406;2022-07-21T05:11:52;25.65;;;14.20;;
72156;SDS011;60035;52.122;5.406;2022-07-21T05:14:19;24.00;;;14.77;;
72156;SDS011;60035;52.122;5.406;2022-07-21T05:16:45;26.45;;;14.73;;
72156;SDS011;60035;52.122;5.406;2022-07-21T05:19:12;22.58;;;13.77;;
72156;SDS011;60035;52.122;5.406;2022-07-21T05:21:39;26.42;;;15.35;;
72156;SDS011;60035;52.122;5.406;2022-07-21T05:24:05;25.50;;;15.07;;
72156;SDS011;60035;52.122;5.406;2022-07-21T05:26:32;23.45;;;14.18;;
72156;SDS011;60035;52.122;5.406;2022-07-21T05:28:58;27.58;;;14.43;;
72156;SDS011;60035;52.122;5.406;2022-07-21T05:31:25;27.92;;;15.85;;
72156;SDS011;60035;52.122;5.406;2022-07-21T05:33:51;29.27;;;15.20;;
72156;SDS011;60035;52.122;5.406;2022-07-21T05:36:18;29.75;;;16.02;;
72156;SDS011;60035;52.122;5.406;2022-07-21T05:38:45;30.73;;;16.60;;
72156;SDS011;60035;52.122;5.406;2022-07-21T05:41:12;30.83;;;16.38;;
72156;SDS011;60035;52.122;5.406;2022-07-21T05:43:39;29.23;;;17.48;;
72156;SDS011;60035;52.122;5.406;2022-07-21T05:46:06;31.38;;;17.15;;
72156;SDS011;60035;52.122;5.406;2022-07-21T05:48:32;32.95;;;17.98;;
72156;SDS011;60035;52.122;5.406;2022-07-21T05:50:59;29.00;;;17.23;;
72156;SDS011;60035;52.122;5.406;2022-07-21T05:53:25;29.75;;;16.45;;
72156;SDS011;60035;52.122;5.406;2022-07-21T05:55:52;29.75;;;17.67;;
72156;SDS011;60035;52.122;5.406;2022-07-21T05:58:19;30.40;;;16.40;;
72156;SDS011;60035;52.122;5.406;2022-07-21T06:00:49;29.60;;;17.13;;
72156;SDS011;60035;52.122;5.406;2022-07-21T06:03:38;30.23;;;16.10;;
72156;SDS011;60035;52.122;5.406;2022-07-21T06:06:06;28.20;;;15.55;;
72156;SDS011;60035;52.122;5.406;2022-07-21T06:08:32;26.52;;;15.38;;
72156;SDS011;60035;52.122;5.406;2022-07-21T06:10:59;28.92;;;15.88;;
72156;SDS011;60035;52.122;5.406;2022-07-21T06:13:26;26.02;;;14.48;;
72156;SDS011;60035;52.122;5.406;2022-07-21T06:15:52;25.23;;;14.13;;
72156;SDS011;60035;52.122;5.406;2022-07-21T06:18:19;26.25;;;14.85;;
72156;SDS011;60035;52.122;5.406;2022-07-21T06:20:47;28.73;;;15.00;;
72156;SDS011;60035;52.122;5.406;2022-07-21T06:23:14;27.20;;;15.52;;
72156;SDS011;60035;52.122;5.406;2022-07-21T06:25:42;25.80;;;13.85;;
72156;SDS011;60035;52.122;5.406;2022-07-21T06:28:09;24.58;;;14.13;;
72156;SDS011;60035;52.122;5.406;2022-07-21T06:30:35;24.08;;;14.68;;
72156;SDS011;60035;52.122;5.406;2022-07-21T06:33:02;25.88;;;14.82;;
72156;SDS011;60035;52.122;5.406;2022-07-21T06:35:29;25.83;;;14.00;;
72156;SDS011;60035;52.122;5.406;2022-07-21T06:37:56;25.88;;;13.63;;
72156;SDS011;60035;52.122;5.406;2022-07-21T06:40:22;23.33;;;13.25;;
72156;SDS011;60035;52.122;5.406;2022-07-21T06:42:49;25.48;;;14.02;;
72156;SDS011;60035;52.122;5.406;2022-07-21T06:45:35;24.40;;;13.20;;
72156;SDS011;60035;52.122;5.406;2022-07-21T06:48:04;23.83;;;13.70;;
72156;SDS011;60035;52.122;5.406;2022-07-21T06:50:33;24.33;;;14.38;;
72156;SDS011;60035;52.122;5.406;2022-07-21T06:53:00;29.52;;;14.10;;
72156;SDS011;60035;52.122;5.406;2022-07-21T06:55:27;26.65;;;14.43;;
72156;SDS011;60035;52.122;5.406;2022-07-21T06:57:53;29.25;;;15.73;;
72156;SDS011;60035;52.122;5.406;2022-07-21T07:00:20;29.48;;;14.38;;
72156;SDS011;60035;52.122;5.406;2022-07-21T07:02:46;29.10;;;13.88;;
72156;SDS011;60035;52.122;5.406;2022-07-21T07:05:13;31.52;;;14.93;;
72156;SDS011;60035;52.122;5.406;2022-07-21T07:07:39;28.58;;;15.10;;
72156;SDS011;60035;52.122;5.406;2022-07-21T07:10:06;32.50;;;16.25;;
72156;SDS011;60035;52.122;5.406;2022-07-21T07:12:33;30.73;;;15.32;;
72156;SDS011;60035;52.122;5.406;2022-07-21T07:15:19;31.20;;;15.45;;
72156;SDS011;60035;52.122;5.406;2022-07-21T07:17:46;34.30;;;15.95;;
72156;SDS011;60035;52.122;5.406;2022-07-21T07:20:13;33.85;;;16.65;;
72156;SDS011;60035;52.122;5.406;2022-07-21T07:22:39;34.63;;;16.90;;
72156;SDS011;60035;52.122;5.406;2022-07-21T07:25:06;37.03;;;17.08;;
72156;SDS011;60035;52.122;5.406;2022-07-21T07:27:34;33.17;;;16.50;;
72156;SDS011;60035;52.122;5.406;2022-07-21T07:30:00;33.15;;;15.88;;
72156;SDS011;60035;52.122;5.406;2022-07-21T07:32:34;31.50;;;17.15;;
72156;SDS011;60035;52.122;5.406;2022-07-21T07:35:01;34.15;;;16.75;;
72156;SDS011;60035;52.122;5.406;2022-07-21T07:37:28;34.05;;;16.88;;
72156;SDS011;60035;52.122;5.406;2022-07-21T07:39:55;32.60;;;17.13;;
72156;SDS011;60035;52.122;5.406;2022-07-21T07:42:21;36.58;;;17.90;;
72156;SDS011;60035;52.122;5.406;2022-07-21T07:44:48;35.38;;;18.17;;
72156;SDS011;60035;52.122;5.406;2022-07-21T07:47:14;40.67;;;18.42;;
72156;SDS011;60035;52.122;5.406;2022-07-21T07:49:41;36.20;;;17.55;;
72156;SDS011;60035;52.122;5.406;2022-07-21T07:52:07;38.10;;;17.95;;
72156;SDS011;60035;52.122;5.406;2022-07-21T07:54:33;38.70;;;17.77;;
72156;SDS011;60035;52.122;5.406;2022-07-21T07:57:00;37.72;;;18.85;;
72156;SDS011;60035;52.122;5.406;2022-07-21T07:59:26;37.55;;;18.50;;
72156;SDS011;60035;52.122;5.406;2022-07-21T08:01:53;36.92;;;19.35;;
72156;SDS011;60035;52.122;5.406;2022-07-21T08:04:19;38.08;;;17.88;;
72156;SDS011;60035;52.122;5.406;2022-07-21T08:06:46;39.88;;;18.58;;
72156;SDS011;60035;52.122;5.406;2022-07-21T08:09:12;37.20;;;19.27;;
72156;SDS011;60035;52.122;5.406;2022-07-21T08:11:40;37.92;;;18.23;;
72156;SDS011;60035;52.122;5.406;2022-07-21T08:14:06;34.55;;;17.52;;
72156;SDS011;60035;52.122;5.406;2022-07-21T08:16:34;35.08;;;16.95;;
72156;SDS011;60035;52.122;5.406;2022-07-21T08:19:01;36.40;;;17.33;;
72156;SDS011;60035;52.122;5.406;2022-07-21T08:21:27;36.78;;;17.88;;
72156;SDS011;60035;52.122;5.406;2022-07-21T08:24:16;38.30;;;17.55;;
72156;SDS011;60035;52.122;5.406;2022-07-21T08:26:43;33.33;;;16.92;;
72156;SDS011;60035;52.122;5.406;2022-07-21T08:29:10;36.38;;;17.60;;
72156;SDS011;60035;52.122;5.406;2022-07-21T08:31:37;38.40;;;17.88;;
72156;SDS011;60035;52.122;5.406;2022-07-21T08:34:03;39.58;;;17.35;;
72156;SDS011;60035;52.122;5.406;2022-07-21T08:36:30;37.45;;;17.77;;
72156;SDS011;60035;52.122;5.406;2022-07-21T08:38:56;42.90;;;18.38;;
72156;SDS011;60035;52.122;5.406;2022-07-21T08:41:23;38.80;;;18.23;;
72156;SDS011;60035;52.122;5.406;2022-07-21T08:43:51;33.20;;;16.45;;
72156;SDS011;60035;52.122;5.406;2022-07-21T08:46:21;38.13;;;18.05;;
72156;SDS011;60035;52.122;5.406;2022-07-21T08:48:49;37.97;;;17.67;;
72156;SDS011;60035;52.122;5.406;2022-07-21T08:51:17;34.60;;;16.05;;
72156;SDS011;60035;52.122;5.406;2022-07-21T08:53:44;35.47;;;17.20;;
72156;SDS011;60035;52.122;5.406;2022-07-21T08:56:11;35.30;;;17.48;;
72156;SDS011;60035;52.122;5.406;2022-07-21T08:58:38;34.97;;;15.98;;
72156;SDS011;60035;52.122;5.406;2022-07-21T09:01:06;31.15;;;16.15;;
72156;SDS011;60035;52.122;5.406;2022-07-21T09:03:33;30.85;;;15.65;;
72156;SDS011;60035;52.122;5.406;2022-07-21T09:06:05;27.00;;;14.40;;
72156;SDS011;60035;52.122;5.406;2022-07-21T09:08:35;29.13;;;14.43;;
72156;SDS011;60035;52.122;5.406;2022-07-21T09:11:15;30.40;;;15.43;;
72156;SDS011;60035;52.122;5.406;2022-07-21T09:16:33;28.55;;;15.35;;
72156;SDS011;60035;52.122;5.406;2022-07-21T09:19:01;25.13;;;12.57;;
72156;SDS011;60035;52.122;5.406;2022-07-21T09:21:28;27.08;;;13.07;;
72156;SDS011;60035;52.122;5.406;2022-07-21T09:24:11;27.60;;;13.70;;
72156;SDS011;60035;52.122;5.406;2022-07-21T09:27:14;24.27;;;12.25;;
72156;SDS011;60035;52.122;5.406;2022-07-21T09:29:43;15.85;;;8.73;;
72156;SDS011;60035;52.122;5.406;2022-07-21T09:32:18;15.85;;;7.70;;
72156;SDS011;60035;52.122;5.406;2022-07-21T09:37:33;13.20;;;6.85;;
72156;SDS011;60035;52.122;5.406;2022-07-21T09:40:00;14.57;;;7.22;;
72156;SDS011;60035;52.122;5.406;2022-07-21T09:42:35;11.55;;;5.50;;
72156;SDS011;60035;52.122;5.406;2022-07-21T09:45:10;9.52;;;5.05;;
72156;SDS011;60035;52.122;5.406;2022-07-21T09:47:39;12.57;;;5.75;;
72156;SDS011;60035;52.122;5.406;2022-07-21T09:50:07;10.90;;;5.50;;
72156;SDS011;60035;52.122;5.406;2022-07-21T09:52:55;10.77;;;5.55;;
72156;SDS011;60035;52.122;5.406;2022-07-21T09:55:23;9.52;;;5.07;;
72156;SDS011;60035;52.122;5.406;2022-07-21T09:57:49;12.27;;;5.63;;
72156;SDS011;60035;52.122;5.406;2022-07-21T10:00:19;9.98;;;5.53;;
72156;SDS011;60035;52.122;5.406;2022-07-21T10:02:50;9.07;;;4.93;;
72156;SDS011;60035;52.122;5.406;2022-07-21T10:05:20;8.23;;;4.20;;
72156;SDS011;60035;52.122;5.406;2022-07-21T10:07:54;9.00;;;4.63;;
72156;SDS011;60035;52.122;5.406;2022-07-21T10:10:21;10.00;;;4.22;;
72156;SDS011;60035;52.122;5.406;2022-07-21T10:13:08;8.40;;;4.55;;
72156;SDS011;60035;52.122;5.406;2022-07-21T10:15:35;8.25;;;3.80;;
72156;SDS011;60035;52.122;5.406;2022-07-21T10:18:02;8.27;;;4.10;;
72156;SDS011;60035;52.122;5.406;2022-07-21T10:20:32;8.43;;;4.70;;
72156;SDS011;60035;52.122;5.406;2022-07-21T10:23:12;7.40;;;3.75;;
72156;SDS011;60035;52.122;5.406;2022-07-21T10:25:46;8.18;;;3.95;;
72156;SDS011;60035;52.122;5.406;2022-07-21T10:28:14;7.20;;;3.67;;
72156;SDS011;60035;52.122;5.406;2022-07-21T10:30:45;6.93;;;3.72;;
72156;SDS011;60035;52.122;5.406;2022-07-21T10:35:42;6.75;;;3.85;;
72156;SDS011;60035;52.122;5.406;2022-07-21T10:38:33;7.97;;;4.00;;
72156;SDS011;60035;52.122;5.406;2022-07-21T10:40:59;8.63;;;3.97;;
72156;SDS011;60035;52.122;5.406;2022-07-21T10:45:55;8.30;;;4.40;;
72156;SDS011;60035;52.122;5.406;2022-07-21T10:51:07;8.30;;;4.30;;
72156;SDS011;60035;52.122;5.406;2022-07-21T10:53:38;9.88;;;5.05;;
72156;SDS011;60035;52.122;5.406;2022-07-21T10:56:05;9.40;;;4.90;;
72156;SDS011;60035;52.122;5.406;2022-07-21T10:58:34;9.50;;;5.20;;
72156;SDS011;60035;52.122;5.406;2022-07-21T11:01:01;9.18;;;4.65;;
72156;SDS011;60035;52.122;5.406;2022-07-21T11:03:46;10.13;;;5.40;;
72156;SDS011;60035;52.122;5.406;2022-07-21T11:06:31;9.10;;;4.80;;
72156;SDS011;60035;52.122;5.406;2022-07-21T11:11:28;9.02;;;4.97;;
72156;SDS011;60035;52.122;5.406;2022-07-21T11:14:01;10.10;;;5.28;;
72156;SDS011;60035;52.122;5.406;2022-07-21T11:22:09;10.00;;;4.63;;
72156;SDS011;60035;52.122;5.406;2022-07-21T11:24:36;9.48;;;4.78;;
72156;SDS011;60035;52.122;5.406;2022-07-21T11:27:10;8.00;;;4.00;;
72156;SDS011;60035;52.122;5.406;2022-07-21T11:29:40;9.38;;;4.63;;
72156;SDS011;60035;52.122;5.406;2022-07-21T11:32:08;8.43;;;4.38;;
72156;SDS011;60035;52.122;5.406;2022-07-21T11:34:47;9.27;;;4.43;;
72156;SDS011;60035;52.122;5.406;2022-07-21T11:37:16;8.77;;;4.43;;
72156;SDS011;60035;52.122;5.406;2022-07-21T11:40:04;8.10;;;4.13;;
72156;SDS011;60035;52.122;5.406;2022-07-21T11:42:33;8.68;;;4.38;;
72156;SDS011;60035;52.122;5.406;2022-07-21T11:45:00;8.95;;;4.60;;
72156;SDS011;60035;52.122;5.406;2022-07-21T11:47:27;9.95;;;5.20;;
72156;SDS011;60035;52.122;5.406;2022-07-21T11:49:55;8.75;;;4.30;;
72156;SDS011;60035;52.122;5.406;2022-07-21T11:52:29;8.40;;;4.38;;
72156;SDS011;60035;52.122;5.406;2022-07-21T11:54:58;7.53;;;3.58;;
72156;SDS011;60035;52.122;5.406;2022-07-21T11:57:26;7.90;;;3.88;;
72156;SDS011;60035;52.122;5.406;2022-07-21T11:59:54;8.68;;;4.03;;
72156;SDS011;60035;52.122;5.406;2022-07-21T12:02:26;7.60;;;3.88;;
72156;SDS011;60035;52.122;5.406;2022-07-21T12:07:30;9.30;;;4.10;;
72156;SDS011;60035;52.122;5.406;2022-07-21T12:10:08;8.55;;;4.50;;
72156;SDS011;60035;52.122;5.406;2022-07-21T12:15:24;7.47;;;3.72;;
72156;SDS011;60035;52.122;5.406;2022-07-21T12:17:55;8.02;;;4.20;;
72156;SDS011;60035;52.122;5.406;2022-07-21T12:20:24;8.10;;;4.20;;
72156;SDS011;60035;52.122;5.406;2022-07-21T12:22:59;7.93;;;4.15;;
72156;SDS011;60035;52.122;5.406;2022-07-21T12:25:32;8.43;;;4.15;;
72156;SDS011;60035;52.122;5.406;2022-07-21T12:28:04;7.75;;;3.83;;
72156;SDS011;60035;52.122;5.406;2022-07-21T12:33:09;7.93;;;3.90;;
72156;SDS011;60035;52.122;5.406;2022-07-21T12:35:41;8.23;;;3.88;;
72156;SDS011;60035;52.122;5.406;2022-07-21T12:38:15;7.82;;;4.18;;
72156;SDS011;60035;52.122;5.406;2022-07-21T12:40:47;8.70;;;4.05;;
72156;SDS011;60035;52.122;5.406;2022-07-21T12:43:38;9.27;;;4.28;;
72156;SDS011;60035;52.122;5.406;2022-07-21T12:46:13;8.95;;;5.47;;
72156;SDS011;60035;52.122;5.406;2022-07-21T12:48:42;8.73;;;3.80;;
72156;SDS011;60035;52.122;5.406;2022-07-21T12:51:12;7.57;;;3.90;;
72156;SDS011;60035;52.122;5.406;2022-07-21T12:53:53;7.22;;;3.75;;
72156;SDS011;60035;52.122;5.406;2022-07-21T12:56:21;7.15;;;3.92;;
72156;SDS011;60035;52.122;5.406;2022-07-21T12:58:48;7.68;;;3.97;;
72156;SDS011;60035;52.122;5.406;2022-07-21T13:01:16;6.97;;;3.63;;
72156;SDS011;60035;52.122;5.406;2022-07-21T13:03:44;6.90;;;3.83;;
72156;SDS011;60035;52.122;5.406;2022-07-21T13:06:12;7.25;;;3.60;;
72156;SDS011;60035;52.122;5.406;2022-07-21T13:08:40;8.15;;;4.05;;
72156;SDS011;60035;52.122;5.406;2022-07-21T13:11:08;7.30;;;3.47;;
72156;SDS011;60035;52.122;5.406;2022-07-21T13:13:36;7.30;;;3.95;;
72156;SDS011;60035;52.122;5.406;2022-07-21T13:16:04;6.25;;;3.05;;
72156;SDS011;60035;52.122;5.406;2022-07-21T13:18:31;7.28;;;3.38;;
72156;SDS011;60035;52.122;5.406;2022-07-21T13:21:01;8.50;;;3.80;;
72156;SDS011;60035;52.122;5.406;2022-07-21T13:23:28;7.35;;;3.33;;
72156;SDS011;60035;52.122;5.406;2022-07-21T13:25:54;6.70;;;3.53;;
72156;SDS011;60035;52.122;5.406;2022-07-21T13:28:30;6.78;;;3.28;;
72156;SDS011;60035;52.122;5.406;2022-07-21T13:30:56;6.82;;;3.17;;
72156;SDS011;60035;52.122;5.406;2022-07-21T13:33:23;4.82;;;2.60;;
72156;SDS011;60035;52.122;5.406;2022-07-21T13:35:49;4.55;;;2.28;;
72156;SDS011;60035;52.122;5.406;2022-07-21T13:38:16;5.95;;;2.55;;
72156;SDS011;60035;52.122;5.406;2022-07-21T13:40:42;9.73;;;3.33;;
72156;SDS011;60035;52.122;5.406;2022-07-21T13:43:29;6.35;;;2.30;;
72156;SDS011;60035;52.122;5.406;2022-07-21T13:46:03;6.57;;;2.40;;
72156;SDS011;60035;52.122;5.406;2022-07-21T13:48:30;5.20;;;2.25;;
72156;SDS011;60035;52.122;5.406;2022-07-21T13:50:56;4.22;;;1.90;;
72156;SDS011;60035;52.122;5.406;2022-07-21T13:53:23;5.55;;;2.35;;
72156;SDS011;60035;52.122;5.406;2022-07-21T13:55:50;4.53;;;1.80;;
72156;SDS011;60035;52.122;5.406;2022-07-21T13:58:19;4.82;;;2.00;;
72156;SDS011;60035;52.122;5.406;2022-07-21T14:00:46;6.18;;;2.20;;
72156;SDS011;60035;52.122;5.406;2022-07-21T14:03:12;4.20;;;2.08;;
72156;SDS011;60035;52.122;5.406;2022-07-21T14:05:39;5.50;;;2.22;;
72156;SDS011;60035;52.122;5.406;2022-07-21T14:08:05;5.20;;;2.10;;
72156;SDS011;60035;52.122;5.406;2022-07-21T14:10:32;5.50;;;2.40;;
72156;SDS011;60035;52.122;5.406;2022-07-21T14:12:59;5.72;;;2.30;;
72156;SDS011;60035;52.122;5.406;2022-07-21T14:15:26;4.55;;;2.22;;
72156;SDS011;60035;52.122;5.406;2022-07-21T14:17:52;5.13;;;2.42;;
72156;SDS011;60035;52.122;5.406;2022-07-21T14:20:23;6.45;;;2.20;;
72156;SDS011;60035;52.122;5.406;2022-07-21T14:22:52;5.65;;;2.20;;
72156;SDS011;60035;52.122;5.406;2022-07-21T14:25:19;4.50;;;2.25;;
72156;SDS011;60035;52.122;5.406;2022-07-21T14:27:49;4.55;;;2.22;;
72156;SDS011;60035;52.122;5.406;2022-07-21T14:30:17;4.95;;;2.33;;
72156;SDS011;60035;52.122;5.406;2022-07-21T14:32:45;5.72;;;2.70;;
72156;SDS011;60035;52.122;5.406;2022-07-21T14:35:12;5.53;;;2.75;;
72156;SDS011;60035;52.122;5.406;2022-07-21T14:37:45;6.07;;;2.28;;
72156;SDS011;60035;52.122;5.406;2022-07-21T14:40:15;6.15;;;2.30;;
72156;SDS011;60035;52.122;5.406;2022-07-21T14:42:43;6.07;;;2.88;;
72156;SDS011;60035;52.122;5.406;2022-07-21T14:45:11;7.72;;;2.88;;
72156;SDS011;60035;52.122;5.406;2022-07-21T14:47:46;7.57;;;2.75;;
72156;SDS011;60035;52.122;5.406;2022-07-21T14:50:13;5.50;;;2.72;;
72156;SDS011;60035;52.122;5.406;2022-07-21T14:52:40;6.60;;;3.10;;
72156;SDS011;60035;52.122;5.406;2022-07-21T14:55:07;6.15;;;2.65;;
72156;SDS011;60035;52.122;5.406;2022-07-21T14:57:35;6.10;;;2.95;;
72156;SDS011;60035;52.122;5.406;2022-07-21T15:00:03;5.88;;;2.65;;
72156;SDS011;60035;52.122;5.406;2022-07-21T15:02:30;6.13;;;2.95;;
72156;SDS011;60035;52.122;5.406;2022-07-21T15:04:57;5.75;;;2.92;;
72156;SDS011;60035;52.122;5.406;2022-07-21T15:07:24;5.50;;;3.25;;
72156;SDS011;60035;52.122;5.406;2022-07-21T15:09:50;5.82;;;2.90;;
72156;SDS011;60035;52.122;5.406;2022-07-21T15:12:17;6.18;;;2.97;;